Time;durP1;ratioP1;P1;durP2;ratioP2;P2;SDS_P1;SDS_P2;PMS_P1;PMS_P2;Temp;Humidity;BMP_temperature;BMP_pressure;BME280_temperature;BME280_humidity;BME280_pressure;Samples;Min_cycle;Max_cycle;Signal;HPM_P1;HPM_P2
2022/02/24 00:01:47;;;;;;;20.75;3.28;;;;;;;;;;5064949;28;20479;-62
2022/02/24 00:04:12;;;;;;;24.92;1.60;;;;;;;;;;5060145;28;20522;-59
2022/02/24 00:06:38;;;;;;;18.52;1.98;;;;;;;;;;5060901;28;20029;-61
2022/02/24 00:09:04;;;;;;;15.20;1.63;;;;;;;;;;5057031;28;20045;-61
2022/02/24 00:11:31;;;;;;;15.77;2.03;;;;;;;;;;5057264;28;20039;-62
2022/02/24 00:13:57;;;;;;;19.15;2.17;;;;;;;;;;5055180;28;20040;-62
2022/02/24 00:16:23;;;;;;;17.15;1.92;;;;;;;;;;5057898;28;20044;-61
2022/02/24 00:18:48;;;;;;;13.07;1.50;;;;;;;;;;5063260;28;20082;-61
2022/02/24 00:21:14;;;;;;;13.30;2.22;;;;;;;;;;5062960;28;20033;-61
2022/02/24 00:23:39;;;;;;;7.22;2.60;;;;;;;;;;5060043;28;20545;-61
2022/02/24 00:26:05;;;;;;;13.70;2.17;;;;;;;;;;5065267;28;20044;-60
2022/02/24 00:28:30;;;;;;;12.88;1.52;;;;;;;;;;5055279;28;20067;-60
2022/02/24 00:30:56;;;;;;;28.08;3.22;;;;;;;;;;5061855;28;20028;-61
2022/02/24 00:33:21;;;;;;;8.80;1.67;;;;;;;;;;5057575;28;21800;-60
2022/02/24 00:35:47;;;;;;;10.48;1.52;;;;;;;;;;5062781;28;20028;-60
2022/02/24 00:38:12;;;;;;;12.88;1.52;;;;;;;;;;5059858;28;20395;-61
2022/02/24 00:40:37;;;;;;;17.60;1.20;;;;;;;;;;5059815;28;20029;-61
2022/02/24 00:43:03;;;;;;;13.65;1.67;;;;;;;;;;5056546;28;20040;-60
2022/02/24 00:45:30;;;;;;;9.23;1.80;;;;;;;;;;5064784;28;20364;-61
2022/02/24 00:47:55;;;;;;;10.45;1.42;;;;;;;;;;5061068;28;20032;-61
2022/02/24 00:50:21;;;;;;;21.63;1.83;;;;;;;;;;5058804;28;20036;-61
2022/02/24 00:52:46;;;;;;;6.90;1.33;;;;;;;;;;5058229;28;20064;-61
2022/02/24 00:55:12;;;;;;;8.35;1.52;;;;;;;;;;5067308;28;20031;-59
2022/02/24 00:57:37;;;;;;;14.27;2.28;;;;;;;;;;5067192;28;20040;-61
2022/02/24 01:00:05;;;;;;;10.68;1.75;;;;;;;;;;5061588;28;20036;-60
2022/02/24 01:02:30;;;;;;;14.02;1.80;;;;;;;;;;5058870;28;21391;-59
2022/02/24 01:04:56;;;;;;;11.18;1.48;;;;;;;;;;5055477;28;20028;-60
2022/02/24 01:07:21;;;;;;;7.18;0.98;;;;;;;;;;5059907;28;20044;-61
2022/02/24 01:09:47;;;;;;;9.32;1.40;;;;;;;;;;5076176;28;20495;-62
2022/02/24 01:12:12;;;;;;;10.40;1.13;;;;;;;;;;5065364;28;20530;-58
2022/02/24 01:14:38;;;;;;;10.65;1.90;;;;;;;;;;5059016;28;20093;-60
2022/02/24 01:17:04;;;;;;;11.07;1.30;;;;;;;;;;5053129;28;20561;-61
2022/02/24 01:19:29;;;;;;;5.38;0.98;;;;;;;;;;5058747;28;20052;-61
2022/02/24 01:21:55;;;;;;;8.70;1.48;;;;;;;;;;5062663;28;20036;-61
2022/02/24 01:24:20;;;;;;;16.38;1.63;;;;;;;;;;5055274;28;20085;-62
2022/02/24 01:26:45;;;;;;;6.78;1.20;;;;;;;;;;5064211;28;20089;-61
2022/02/24 01:29:11;;;;;;;16.58;2.60;;;;;;;;;;5056867;28;20470;-60
2022/02/24 01:31:36;;;;;;;12.40;1.48;;;;;;;;;;5062919;28;20383;-60
2022/02/24 01:34:02;;;;;;;9.77;1.38;;;;;;;;;;5062053;28;20689;-60
2022/02/24 01:36:28;;;;;;;10.27;1.75;;;;;;;;;;5056835;28;20115;-60
2022/02/24 01:38:54;;;;;;;7.60;1.08;;;;;;;;;;5056815;28;20549;-60
2022/02/24 01:41:20;;;;;;;9.20;0.98;;;;;;;;;;5061304;28;20046;-60
2022/02/24 01:43:46;;;;;;;7.57;1.48;;;;;;;;;;5057946;28;20021;-60
2022/02/24 01:46:13;;;;;;;6.25;1.23;;;;;;;;;;5063968;28;20047;-60
2022/02/24 01:48:39;;;;;;;16.98;2.20;;;;;;;;;;5059285;28;20027;-60
2022/02/24 01:51:05;;;;;;;10.35;1.00;;;;;;;;;;5060310;28;20207;-61
2022/02/24 01:53:30;;;;;;;10.35;2.00;;;;;;;;;;5059547;28;20520;-61
2022/02/24 01:55:56;;;;;;;9.32;1.50;;;;;;;;;;5062134;28;20028;-61
2022/02/24 01:58:22;;;;;;;8.23;1.45;;;;;;;;;;5060025;28;20161;-61
2022/02/24 02:00:48;;;;;;;9.70;1.50;;;;;;;;;;5059539;28;20212;-61
2022/02/24 02:03:13;;;;;;;16.95;1.98;;;;;;;;;;5044911;28;20024;-61
2022/02/24 02:05:39;;;;;;;10.65;2.05;;;;;;;;;;5053957;28;20062;-61
2022/02/24 02:08:05;;;;;;;7.78;1.00;;;;;;;;;;5061349;28;20525;-61
2022/02/24 02:10:30;;;;;;;9.98;1.45;;;;;;;;;;5059901;28;20098;-61
2022/02/24 02:12:56;;;;;;;12.68;1.45;;;;;;;;;;5063576;28;20028;-61
2022/02/24 02:15:22;;;;;;;6.20;1.42;;;;;;;;;;5062741;28;20033;-61
2022/02/24 02:17:48;;;;;;;12.57;2.55;;;;;;;;;;5059548;28;20032;-61
2022/02/24 02:20:14;;;;;;;3.85;1.55;;;;;;;;;;5057635;28;20025;-61
2022/02/24 02:22:42;;;;;;;2.72;0.93;;;;;;;;;;5054092;28;20098;-61
2022/02/24 02:25:08;;;;;;;10.57;1.50;;;;;;;;;;5056573;28;20031;-61
2022/02/24 02:27:34;;;;;;;8.25;1.20;;;;;;;;;;5064781;28;20047;-61
2022/02/24 02:30:00;;;;;;;7.70;1.73;;;;;;;;;;5056496;28;20615;-61
2022/02/24 02:32:27;;;;;;;11.13;1.27;;;;;;;;;;5077041;28;20123;-60
2022/02/24 02:34:52;;;;;;;8.73;1.55;;;;;;;;;;5059576;28;20067;-60
2022/02/24 02:37:18;;;;;;;10.13;1.42;;;;;;;;;;5064229;28;20056;-60
2022/02/24 02:39:43;;;;;;;7.60;0.75;;;;;;;;;;5055977;28;20507;-60
2022/02/24 02:42:09;;;;;;;17.00;2.60;;;;;;;;;;5075488;28;20028;-60
2022/02/24 02:44:34;;;;;;;4.35;0.75;;;;;;;;;;5058027;28;20472;-59
2022/02/24 02:47:00;;;;;;;4.35;1.00;;;;;;;;;;5062532;28;20070;-61
2022/02/24 02:49:25;;;;;;;8.18;1.83;;;;;;;;;;5059723;28;20107;-61
2022/02/24 02:51:52;;;;;;;5.00;0.50;;;;;;;;;;5057711;28;20403;-61
2022/02/24 02:54:18;;;;;;;12.93;1.10;;;;;;;;;;5067497;28;20068;-61
2022/02/24 02:56:43;;;;;;;5.47;0.80;;;;;;;;;;5064079;28;20044;-61
2022/02/24 02:59:09;;;;;;;7.63;1.33;;;;;;;;;;5064050;28;20075;-61
2022/02/24 03:01:34;;;;;;;9.02;1.02;;;;;;;;;;5063028;28;20033;-62
2022/02/24 03:04:00;;;;;;;8.15;0.93;;;;;;;;;;5060672;28;20040;-62
2022/02/24 03:06:26;;;;;;;7.70;1.17;;;;;;;;;;5062124;28;20042;-61
2022/02/24 03:08:51;;;;;;;13.10;1.63;;;;;;;;;;5061937;28;20032;-61
2022/02/24 03:11:16;;;;;;;10.75;1.70;;;;;;;;;;5059529;28;20445;-62
2022/02/24 03:13:42;;;;;;;11.63;1.83;;;;;;;;;;5066225;28;20041;-61
2022/02/24 03:16:07;;;;;;;11.57;1.55;;;;;;;;;;5060265;28;20032;-61
2022/02/24 03:18:33;;;;;;;8.70;1.35;;;;;;;;;;5065974;28;20042;-61
2022/02/24 03:20:58;;;;;;;11.30;1.38;;;;;;;;;;5062473;28;20399;-61
2022/02/24 03:23:24;;;;;;;9.23;1.02;;;;;;;;;;5063416;28;20406;-61
2022/02/24 03:25:49;;;;;;;6.47;1.58;;;;;;;;;;5061851;28;20158;-62
2022/02/24 03:28:15;;;;;;;6.30;1.00;;;;;;;;;;5054560;28;20130;-61
2022/02/24 03:30:41;;;;;;;11.07;1.02;;;;;;;;;;5062257;28;20028;-61
2022/02/24 03:33:06;;;;;;;3.88;0.73;;;;;;;;;;5062701;28;20483;-61
2022/02/24 03:35:32;;;;;;;11.20;1.33;;;;;;;;;;5063523;28;20020;-61
2022/02/24 03:38:01;;;;;;;7.15;1.40;;;;;;;;;;5057599;28;20101;-61
2022/02/24 03:40:27;;;;;;;2.80;0.63;;;;;;;;;;5059123;28;20036;-62
2022/02/24 03:42:53;;;;;;;3.47;0.80;;;;;;;;;;5061828;28;20033;-61
2022/02/24 03:45:19;;;;;;;5.35;0.68;;;;;;;;;;5063565;28;20750;-61
2022/02/24 03:47:44;;;;;;;8.95;1.58;;;;;;;;;;5062687;28;20029;-61
2022/02/24 03:50:13;;;;;;;5.43;1.10;;;;;;;;;;5059019;28;20063;-61
2022/02/24 03:52:38;;;;;;;3.83;0.75;;;;;;;;;;5058190;28;20047;-61
2022/02/24 03:55:04;;;;;;;1.75;0.57;;;;;;;;;;5061141;28;20491;-60
2022/02/24 03:57:30;;;;;;;7.90;1.13;;;;;;;;;;5064049;28;20047;-60
2022/02/24 03:59:55;;;;;;;3.95;0.40;;;;;;;;;;5058886;28;20147;-60
2022/02/24 04:02:21;;;;;;;5.22;1.00;;;;;;;;;;5059112;28;20049;-61
2022/02/24 04:04:46;;;;;;;5.22;1.08;;;;;;;;;;5062470;28;20597;-59
2022/02/24 04:07:12;;;;;;;4.97;0.73;;;;;;;;;;5058522;28;20021;-62
2022/02/24 04:09:37;;;;;;;10.63;1.02;;;;;;;;;;5061384;28;20036;-61
2022/02/24 04:12:04;;;;;;;9.20;0.65;;;;;;;;;;5063253;28;20033;-60
2022/02/24 04:14:30;;;;;;;4.78;1.10;;;;;;;;;;5061044;28;20044;-60
2022/02/24 04:16:56;;;;;;;7.28;0.93;;;;;;;;;;5057931;28;20524;-61
2022/02/24 04:19:22;;;;;;;3.05;0.30;;;;;;;;;;5063470;28;20036;-60
2022/02/24 04:21:48;;;;;;;1.77;0.38;;;;;;;;;;5066914;28;20488;-61
2022/02/24 04:24:13;;;;;;;2.47;0.50;;;;;;;;;;5064584;28;20028;-61
2022/02/24 04:26:39;;;;;;;5.40;0.65;;;;;;;;;;5066787;28;20032;-61
2022/02/24 04:29:04;;;;;;;6.90;1.10;;;;;;;;;;5061429;28;20507;-61
2022/02/24 04:31:30;;;;;;;1.00;0.50;;;;;;;;;;5063199;28;20441;-60
2022/02/24 04:33:55;;;;;;;2.53;0.93;;;;;;;;;;5060866;28;20028;-60
2022/02/24 04:36:23;;;;;;;4.47;0.52;;;;;;;;;;5055690;28;20036;-60
2022/02/24 04:38:48;;;;;;;8.70;1.05;;;;;;;;;;5054953;28;20123;-60
2022/02/24 04:41:14;;;;;;;4.32;1.13;;;;;;;;;;5064195;28;20116;-60
2022/02/24 04:43:40;;;;;;;2.88;0.45;;;;;;;;;;5059319;28;20028;-60
2022/02/24 04:46:05;;;;;;;3.28;0.40;;;;;;;;;;5055828;28;20035;-60
2022/02/24 04:48:31;;;;;;;2.95;0.43;;;;;;;;;;5060827;28;20317;-61
2022/02/24 04:50:56;;;;;;;3.05;0.43;;;;;;;;;;5063231;28;20067;-60
2022/02/24 04:53:22;;;;;;;2.00;0.85;;;;;;;;;;5060341;28;20470;-60
2022/02/24 04:55:48;;;;;;;1.45;0.47;;;;;;;;;;5062254;28;20033;-62
2022/02/24 04:58:13;;;;;;;7.57;0.50;;;;;;;;;;5058481;28;20033;-59
2022/02/24 05:00:39;;;;;;;2.17;0.50;;;;;;;;;;5062746;28;20033;-60
2022/02/24 05:03:05;;;;;;;5.47;0.40;;;;;;;;;;5058489;28;20033;-60
2022/02/24 05:05:30;;;;;;;2.28;0.38;;;;;;;;;;5057079;28;20545;-59
2022/02/24 05:07:56;;;;;;;3.63;0.65;;;;;;;;;;5064731;28;20032;-60
2022/02/24 05:10:21;;;;;;;4.85;0.35;;;;;;;;;;5053370;28;20442;-60
2022/02/24 05:12:48;;;;;;;3.55;0.70;;;;;;;;;;5055985;28;20087;-60
2022/02/24 05:15:13;;;;;;;1.33;0.30;;;;;;;;;;5059204;28;20029;-60
2022/02/24 05:17:40;;;;;;;4.28;0.40;;;;;;;;;;5062782;28;20021;-60
2022/02/24 05:20:08;;;;;;;0.35;0.20;;;;;;;;;;5063236;28;20025;-60
2022/02/24 05:22:35;;;;;;;2.72;0.32;;;;;;;;;;5062730;28;20052;-60
2022/02/24 05:25:01;;;;;;;0.35;0.20;;;;;;;;;;5060622;28;20024;-59
2022/02/24 05:27:26;;;;;;;2.50;0.40;;;;;;;;;;5063793;28;20033;-59
2022/02/24 05:29:52;;;;;;;1.20;0.38;;;;;;;;;;5059832;28;20044;-61
2022/02/24 05:32:17;;;;;;;0.35;0.30;;;;;;;;;;5059370;28;20036;-60
2022/02/24 05:34:44;;;;;;;2.03;0.93;;;;;;;;;;5058789;28;20473;-61
2022/02/24 05:37:09;;;;;;;0.93;0.40;;;;;;;;;;5057030;28;20033;-60
2022/02/24 05:39:35;;;;;;;0.60;0.30;;;;;;;;;;5054486;28;20056;-60
2022/02/24 05:42:00;;;;;;;1.50;0.20;;;;;;;;;;5065373;28;20469;-61
2022/02/24 05:44:27;;;;;;;1.25;0.30;;;;;;;;;;5056276;28;20131;-60
2022/02/24 05:46:53;;;;;;;1.08;0.30;;;;;;;;;;5066447;28;20042;-61
2022/02/24 05:49:18;;;;;;;1.65;0.22;;;;;;;;;;5058039;28;20562;-61
2022/02/24 05:51:44;;;;;;;1.00;0.10;;;;;;;;;;5063965;28;20048;-61
2022/02/24 05:54:10;;;;;;;1.50;0.20;;;;;;;;;;5056960;28;20060;-61
2022/02/24 05:56:37;;;;;;;0.20;0.20;;;;;;;;;;5055495;28;20060;-61
2022/02/24 05:59:02;;;;;;;2.00;0.25;;;;;;;;;;5061373;28;20024;-61
2022/02/24 06:01:28;;;;;;;0.75;0.30;;;;;;;;;;5060689;28;20024;-63
2022/02/24 06:03:53;;;;;;;1.60;0.25;;;;;;;;;;5054704;28;20566;-60
2022/02/24 06:06:19;;;;;;;0.63;0.30;;;;;;;;;;5062648;28;20047;-61
2022/02/24 06:08:44;;;;;;;1.40;0.17;;;;;;;;;;5056694;28;20110;-61
2022/02/24 06:11:10;;;;;;;0.85;0.20;;;;;;;;;;5061561;28;20032;-61
2022/02/24 06:13:35;;;;;;;2.17;0.30;;;;;;;;;;5055671;28;20119;-62
2022/02/24 06:16:01;;;;;;;2.60;0.50;;;;;;;;;;5068823;28;20033;-61
2022/02/24 06:18:27;;;;;;;2.67;0.50;;;;;;;;;;5065172;28;20066;-61
2022/02/24 06:20:52;;;;;;;2.90;0.40;;;;;;;;;;5056264;28;20471;-62
2022/02/24 06:23:18;;;;;;;4.95;0.32;;;;;;;;;;5058952;28;20059;-62
2022/02/24 06:25:43;;;;;;;0.98;0.35;;;;;;;;;;5062969;28;20176;-61
2022/02/24 06:28:09;;;;;;;1.65;0.50;;;;;;;;;;5058925;28;20116;-61
2022/02/24 06:30:34;;;;;;;1.30;0.40;;;;;;;;;;5067539;28;20041;-62
2022/02/24 06:33:01;;;;;;;0.10;0.10;;;;;;;;;;5061867;28;20484;-61
2022/02/24 06:35:26;;;;;;;5.85;0.52;;;;;;;;;;5060211;28;20119;-61
2022/02/24 06:37:51;;;;;;;0.20;0.20;;;;;;;;;;5062933;28;20162;-59
2022/02/24 06:40:17;;;;;;;1.02;0.20;;;;;;;;;;5063106;28;20036;-58
2022/02/24 06:42:42;;;;;;;1.80;0.38;;;;;;;;;;5062350;28;20534;-60
2022/02/24 06:45:09;;;;;;;2.25;0.50;;;;;;;;;;5059149;28;20040;-61
2022/02/24 06:47:35;;;;;;;1.67;0.50;;;;;;;;;;5061833;28;20301;-60
2022/02/24 06:50:01;;;;;;;1.40;0.47;;;;;;;;;;5061871;28;20438;-61
2022/02/24 06:52:27;;;;;;;3.97;0.50;;;;;;;;;;5062929;28;20309;-61
2022/02/24 06:54:52;;;;;;;0.32;0.30;;;;;;;;;;5053123;28;20418;-61
2022/02/24 06:57:18;;;;;;;0.73;0.38;;;;;;;;;;5059853;28;20048;-61
2022/02/24 06:59:44;;;;;;;1.25;0.52;;;;;;;;;;5055001;28;20044;-61
2022/02/24 07:02:09;;;;;;;1.77;0.40;;;;;;;;;;5059689;28;20566;-61
2022/02/24 07:04:35;;;;;;;0.40;0.30;;;;;;;;;;5060453;28;20134;-61
2022/02/24 07:07:01;;;;;;;2.28;0.43;;;;;;;;;;5065639;28;20031;-60
2022/02/24 07:09:28;;;;;;;0.22;0.20;;;;;;;;;;5053800;28;20043;-62
2022/02/24 07:11:53;;;;;;;0.35;0.22;;;;;;;;;;5056663;28;20032;-60
2022/02/24 07:14:20;;;;;;;4.07;0.70;;;;;;;;;;5054386;28;20517;-62
2022/02/24 07:16:46;;;;;;;0.55;0.40;;;;;;;;;;5061684;28;20025;-62
2022/02/24 07:19:12;;;;;;;1.65;0.30;;;;;;;;;;5057169;28;20090;-62
2022/02/24 07:21:37;;;;;;;3.08;0.40;;;;;;;;;;5059213;28;20028;-61
2022/02/24 07:24:04;;;;;;;3.22;0.50;;;;;;;;;;5059927;28;20103;-61
2022/02/24 07:26:29;;;;;;;0.75;0.40;;;;;;;;;;5062372;28;20031;-61
2022/02/24 07:28:55;;;;;;;2.42;0.35;;;;;;;;;;5065141;28;20099;-61
2022/02/24 07:31:21;;;;;;;1.85;0.43;;;;;;;;;;5064557;28;20047;-62
2022/02/24 07:33:48;;;;;;;0.30;0.30;;;;;;;;;;5056515;28;20391;-61
2022/02/24 07:36:14;;;;;;;0.63;0.20;;;;;;;;;;5061911;28;20420;-61
2022/02/24 07:38:39;;;;;;;0.30;0.30;;;;;;;;;;5065613;28;20107;-62
2022/02/24 07:41:05;;;;;;;1.65;0.30;;;;;;;;;;5062594;28;20487;-61
2022/02/24 07:43:32;;;;;;;1.02;0.32;;;;;;;;;;5056141;28;20634;-61
2022/02/24 07:45:58;;;;;;;0.25;0.25;;;;;;;;;;5057101;28;20052;-59
2022/02/24 07:48:24;;;;;;;0.63;0.40;;;;;;;;;;5055804;28;20045;-62
2022/02/24 07:50:50;;;;;;;1.45;0.30;;;;;;;;;;5054035;28;20017;-61
2022/02/24 07:53:16;;;;;;;0.32;0.30;;;;;;;;;;5055463;28;20122;-63
2022/02/24 07:55:42;;;;;;;1.05;0.43;;;;;;;;;;5055094;28;20043;-61
2022/02/24 07:58:09;;;;;;;0.20;0.20;;;;;;;;;;5054970;28;20094;-60
2022/02/24 08:00:35;;;;;;;1.90;0.30;;;;;;;;;;5055435;28;20020;-61
2022/02/24 08:03:01;;;;;;;4.63;0.52;;;;;;;;;;5060803;28;20051;-60
2022/02/24 08:05:26;;;;;;;0.85;0.38;;;;;;;;;;5053232;28;20033;-63
2022/02/24 08:07:52;;;;;;;3.13;0.32;;;;;;;;;;5053203;28;20039;-62
2022/02/24 08:10:17;;;;;;;0.73;0.30;;;;;;;;;;5057553;28;20037;-60
2022/02/24 08:12:43;;;;;;;0.73;0.40;;;;;;;;;;5061053;28;20040;-61
2022/02/24 08:15:19;;;;;;;1.52;0.98;;;;;;;;;;5057301;28;20033;-61
2022/02/24 08:17:45;;;;;;;2.80;0.50;;;;;;;;;;5054815;28;20025;-62
2022/02/24 08:20:12;;;;;;;1.40;0.63;;;;;;;;;;5053182;28;20028;-61
2022/02/24 08:22:40;;;;;;;0.25;0.25;;;;;;;;;;5054947;28;20403;-63
2022/02/24 08:25:07;;;;;;;0.30;0.30;;;;;;;;;;5055097;28;20027;-62
2022/02/24 08:27:37;;;;;;;0.77;0.22;;;;;;;;;;5052604;28;20056;-61
2022/02/24 08:30:05;;;;;;;0.95;0.60;;;;;;;;;;5057382;28;20087;-62
2022/02/24 08:32:30;;;;;;;0.15;0.15;;;;;;;;;;5064629;28;20090;-63
2022/02/24 08:34:58;;;;;;;3.17;0.40;;;;;;;;;;5061214;28;20032;-63
2022/02/24 08:37:23;;;;;;;3.78;0.50;;;;;;;;;;5064073;28;20080;-63
2022/02/24 08:39:49;;;;;;;0.68;0.30;;;;;;;;;;5067650;28;20086;-63
2022/02/24 08:42:14;;;;;;;0.30;0.30;;;;;;;;;;5060117;28;20048;-62
2022/02/24 08:44:43;;;;;;;1.38;0.30;;;;;;;;;;5062646;28;20032;-62
2022/02/24 08:47:10;;;;;;;1.85;0.47;;;;;;;;;;5067502;28;20024;-63
2022/02/24 08:49:36;;;;;;;0.40;0.40;;;;;;;;;;5066873;28;20047;-63
2022/02/24 08:52:02;;;;;;;0.52;0.32;;;;;;;;;;5057877;28;20037;-64
2022/02/24 08:54:27;;;;;;;0.52;0.25;;;;;;;;;;5053683;28;20042;-63
2022/02/24 08:56:53;;;;;;;0.35;0.35;;;;;;;;;;5059479;28;20991;-64
2022/02/24 08:59:18;;;;;;;3.13;0.60;;;;;;;;;;5055503;28;20029;-63
2022/02/24 09:01:44;;;;;;;4.28;1.73;;;;;;;;;;5063081;28;20086;-63
2022/02/24 09:04:09;;;;;;;0.30;0.22;;;;;;;;;;5058633;28;20043;-63
2022/02/24 09:06:35;;;;;;;1.00;0.30;;;;;;;;;;5059431;28;20028;-64
2022/02/24 09:09:01;;;;;;;0.70;0.47;;;;;;;;;;5057239;28;20436;-63
2022/02/24 09:11:27;;;;;;;0.45;0.32;;;;;;;;;;5067126;28;20112;-63
2022/02/24 09:13:52;;;;;;;3.15;0.40;;;;;;;;;;5056810;28;20107;-63
2022/02/24 09:16:18;;;;;;;1.33;0.20;;;;;;;;;;5065077;28;20093;-65
2022/02/24 09:18:44;;;;;;;3.70;0.32;;;;;;;;;;5054249;28;20103;-63
2022/02/24 09:21:09;;;;;;;0.40;0.40;;;;;;;;;;5058912;28;20402;-63
2022/02/24 09:23:35;;;;;;;0.30;0.25;;;;;;;;;;5056587;28;20404;-64
2022/02/24 09:26:00;;;;;;;1.38;0.30;;;;;;;;;;5070688;28;20035;-63
2022/02/24 09:28:26;;;;;;;5.18;0.30;;;;;;;;;;5063082;28;20127;-65
2022/02/24 09:30:52;;;;;;;2.78;0.40;;;;;;;;;;5057845;28;20036;-61
2022/02/24 09:33:17;;;;;;;0.75;0.30;;;;;;;;;;5060293;28;20031;-64
2022/02/24 09:35:43;;;;;;;1.40;0.47;;;;;;;;;;5057149;28;20036;-64
2022/02/24 09:38:09;;;;;;;0.55;0.30;;;;;;;;;;5056828;28;20047;-61
2022/02/24 09:40:34;;;;;;;0.70;0.40;;;;;;;;;;5056512;28;20537;-65
2022/02/24 09:43:03;;;;;;;0.77;0.40;;;;;;;;;;5055159;28;20447;-64
2022/02/24 09:45:29;;;;;;;1.00;0.70;;;;;;;;;;5052011;28;20851;-64
2022/02/24 09:47:55;;;;;;;0.60;0.30;;;;;;;;;;5056829;28;20024;-64
2022/02/24 09:50:22;;;;;;;3.75;0.50;;;;;;;;;;5058719;28;20028;-65
2022/02/24 09:52:48;;;;;;;2.42;0.63;;;;;;;;;;5058742;28;20036;-64
2022/02/24 09:55:13;;;;;;;3.72;0.95;;;;;;;;;;5057103;28;20032;-64
2022/02/24 09:57:39;;;;;;;1.85;0.50;;;;;;;;;;5059699;28;20024;-66
2022/02/24 10:00:06;;;;;;;0.98;0.73;;;;;;;;;;5055575;28;20469;-64
2022/02/24 10:02:32;;;;;;;5.95;1.23;;;;;;;;;;5058627;28;20043;-63
2022/02/24 10:05:07;;;;;;;0.40;0.40;;;;;;;;;;5058325;28;20036;-64
2022/02/24 10:07:35;;;;;;;3.38;0.45;;;;;;;;;;5060560;28;20111;-66
2022/02/24 10:10:33;;;;;;;1.50;0.43;;;;;;;;;;5056200;28;20281;-64
2022/02/24 10:13:00;;;;;;;4.45;0.30;;;;;;;;;;5060256;28;20036;-62
2022/02/24 10:15:26;;;;;;;3.63;0.50;;;;;;;;;;5060773;28;20044;-63
2022/02/24 10:18:08;;;;;;;3.95;0.55;;;;;;;;;;5059012;28;20096;-63
2022/02/24 10:20:47;;;;;;;4.40;0.80;;;;;;;;;;5057405;28;20118;-64
2022/02/24 10:23:15;;;;;;;6.88;1.80;;;;;;;;;;5060810;28;20115;-63
2022/02/24 10:25:46;;;;;;;4.22;0.80;;;;;;;;;;5056492;28;20079;-63
2022/02/24 10:28:38;;;;;;;1.10;0.43;;;;;;;;;;5052341;28;20061;-62
2022/02/24 10:31:12;;;;;;;7.28;0.60;;;;;;;;;;5054025;28;20033;-61
2022/02/24 10:33:43;;;;;;;2.47;0.93;;;;;;;;;;5053928;28;20033;-62
2022/02/24 10:36:25;;;;;;;5.63;0.50;;;;;;;;;;5055141;28;20168;-63
2022/02/24 10:39:22;;;;;;;3.38;0.95;;;;;;;;;;5054641;28;20036;-63
2022/02/24 10:41:52;;;;;;;3.75;1.45;;;;;;;;;;5034485;28;20194;-64
2022/02/24 10:44:22;;;;;;;3.47;0.60;;;;;;;;;;5055565;28;20514;-63
2022/02/24 10:47:08;;;;;;;4.82;1.13;;;;;;;;;;5052142;28;20372;-60
2022/02/24 10:49:36;;;;;;;6.70;0.80;;;;;;;;;;5049572;28;20025;-60
2022/02/24 10:52:13;;;;;;;5.75;1.10;;;;;;;;;;5056667;28;20036;-60
2022/02/24 10:55:00;;;;;;;6.10;0.88;;;;;;;;;;5055700;28;20037;-61
2022/02/24 10:57:27;;;;;;;2.75;0.93;;;;;;;;;;5051025;28;20116;-60
2022/02/24 10:59:58;;;;;;;6.78;0.90;;;;;;;;;;5053128;28;20037;-62
2022/02/24 11:02:27;;;;;;;1.75;0.50;;;;;;;;;;5057562;28;20051;-61
2022/02/24 11:04:54;;;;;;;5.82;0.90;;;;;;;;;;5058607;28;20032;-61
2022/02/24 11:07:22;;;;;;;4.15;0.68;;;;;;;;;;5063817;28;20677;-61
2022/02/24 11:09:48;;;;;;;5.93;1.10;;;;;;;;;;5060577;28;20048;-60
2022/02/24 11:12:16;;;;;;;1.55;0.65;;;;;;;;;;5057102;28;20059;-61
2022/02/24 11:14:45;;;;;;;3.72;1.13;;;;;;;;;;5052228;28;20029;-63
2022/02/24 11:17:12;;;;;;;8.70;1.08;;;;;;;;;;5058077;28;20589;-61
2022/02/24 11:19:39;;;;;;;1.15;0.40;;;;;;;;;;5057305;28;20587;-61
2022/02/24 11:22:06;;;;;;;3.75;1.13;;;;;;;;;;5061109;28;20399;-60
2022/02/24 11:24:32;;;;;;;5.72;0.73;;;;;;;;;;5054797;28;20499;-60
2022/02/24 11:27:04;;;;;;;2.97;0.80;;;;;;;;;;5064221;28;20052;-60
2022/02/24 11:30:00;;;;;;;1.85;0.70;;;;;;;;;;5057539;28;20137;-60
2022/02/24 11:32:27;;;;;;;1.48;0.50;;;;;;;;;;5055631;28;20499;-61
2022/02/24 11:34:57;;;;;;;1.33;0.45;;;;;;;;;;5073967;28;20456;-61
2022/02/24 11:37:39;;;;;;;4.90;1.48;;;;;;;;;;5058479;28;20437;-62
2022/02/24 11:40:21;;;;;;;3.67;0.93;;;;;;;;;;5060824;28;20032;-61
2022/02/24 11:43:00;;;;;;;5.93;1.10;;;;;;;;;;5059290;28;20028;-61
2022/02/24 11:45:26;;;;;;;8.90;1.17;;;;;;;;;;5056132;28;20025;-61
2022/02/24 11:47:57;;;;;;;3.83;0.70;;;;;;;;;;5062398;28;20127;-62
2022/02/24 11:50:42;;;;;;;0.40;0.40;;;;;;;;;;5061548;28;20522;-61
2022/02/24 11:53:27;;;;;;;4.78;0.93;;;;;;;;;;5060147;28;20328;-61
2022/02/24 11:55:59;;;;;;;3.80;0.50;;;;;;;;;;5059362;28;20035;-62
2022/02/24 11:58:31;;;;;;;;;;;;;;;;;;5059650;28;20032;-60
2022/02/24 12:01:13;;;;;;;3.55;0.80;;;;;;;;;;5054790;28;20294;-60
2022/02/24 12:03:44;;;;;;;10.95;1.48;;;;;;;;;;5057633;28;20447;-61
2022/02/24 12:06:16;;;;;;;8.25;1.05;;;;;;;;;;5057968;28;20518;-61
2022/02/24 12:09:01;;;;;;;2.47;0.95;;;;;;;;;;5061438;28;21855;-60
2022/02/24 12:11:28;;;;;;;8.93;1.33;;;;;;;;;;5056712;28;20472;-59
2022/02/24 12:13:53;;;;;;;6.63;1.15;;;;;;;;;;5059749;28;20029;-61
2022/02/24 12:16:20;;;;;;;2.67;1.00;;;;;;;;;;5064492;28;20097;-59
2022/02/24 12:18:48;;;;;;;5.32;1.30;;;;;;;;;;5057067;28;20032;-61
2022/02/24 12:21:35;;;;;;;2.55;1.25;;;;;;;;;;5055720;28;20203;-61
2022/02/24 12:24:10;;;;;;;6.07;1.33;;;;;;;;;;5057738;28;20037;-61
2022/02/24 12:26:45;;;;;;;5.40;1.27;;;;;;;;;;5063053;28;20108;-61
2022/02/24 12:29:29;;;;;;;2.50;0.70;;;;;;;;;;5061265;28;20047;-61
2022/02/24 12:32:00;;;;;;;6.43;1.30;;;;;;;;;;5061158;28;20394;-61
2022/02/24 12:34:27;;;;;;;5.03;1.40;;;;;;;;;;5062840;28;20436;-61
2022/02/24 12:37:03;;;;;;;9.50;1.50;;;;;;;;;;5057839;28;20483;-61
2022/02/24 12:39:30;;;;;;;4.75;1.20;;;;;;;;;;5059230;28;20037;-63
2022/02/24 12:41:55;;;;;;;8.88;0.95;;;;;;;;;;5064375;28;20395;-61
2022/02/24 12:44:25;;;;;;;7.93;1.58;;;;;;;;;;5063938;28;20043;-61
2022/02/24 12:46:52;;;;;;;4.57;1.13;;;;;;;;;;5062979;28;20029;-61
2022/02/24 12:49:18;;;;;;;4.53;1.52;;;;;;;;;;5068853;28;20027;-62
2022/02/24 12:51:45;;;;;;;7.45;1.48;;;;;;;;;;5058251;28;20074;-60
2022/02/24 12:54:15;;;;;;;8.23;1.10;;;;;;;;;;5060867;28;20557;-60
2022/02/24 12:56:41;;;;;;;7.07;1.45;;;;;;;;;;5058106;28;20584;-61
2022/02/24 12:59:11;;;;;;;6.13;1.17;;;;;;;;;;5051988;28;20028;-61
2022/02/24 13:01:38;;;;;;;3.63;0.95;;;;;;;;;;5056022;28;20170;-62
2022/02/24 13:04:17;;;;;;;2.92;0.93;;;;;;;;;;5066528;28;20024;-61
2022/02/24 13:06:45;;;;;;;2.38;1.25;;;;;;;;;;5059301;28;20112;-60
2022/02/24 13:12:04;;;;;;;4.03;1.08;;;;;;;;;;5056742;28;20482;-61
2022/02/24 13:14:30;;;;;;;5.20;1.60;;;;;;;;;;5065234;28;20028;-60
2022/02/24 13:16:56;;;;;;;4.75;1.33;;;;;;;;;;5068812;28;20078;-60
2022/02/24 13:19:23;;;;;;;7.85;2.00;;;;;;;;;;5058813;28;20037;-60
2022/02/24 13:22:07;;;;;;;10.57;2.17;;;;;;;;;;5064505;28;20032;-55
2022/02/24 13:24:35;;;;;;;9.25;2.80;;;;;;;;;;5060084;28;20029;-60
2022/02/24 13:27:06;;;;;;;6.28;1.35;;;;;;;;;;5060599;28;20094;-61
2022/02/24 13:29:33;;;;;;;7.30;1.10;;;;;;;;;;5057913;28;20055;-62
2022/02/24 13:32:25;;;;;;;12.63;1.20;;;;;;;;;;5052977;28;20117;-61
2022/02/24 13:34:57;;;;;;;4.82;0.93;;;;;;;;;;5052249;28;20032;-60
2022/02/24 13:37:32;;;;;;;5.38;1.05;;;;;;;;;;5058598;28;20373;-61
2022/02/24 13:40:07;;;;;;;6.85;1.27;;;;;;;;;;5057920;28;20391;-61
2022/02/24 13:42:33;;;;;;;5.70;1.40;;;;;;;;;;5055444;28;20059;-61
2022/02/24 13:44:58;;;;;;;10.75;1.45;;;;;;;;;;5056304;28;20044;-61
2022/02/24 13:47:24;;;;;;;7.95;1.35;;;;;;;;;;5058959;28;20502;-62
2022/02/24 13:49:51;;;;;;;6.03;1.45;;;;;;;;;;5057393;28;20743;-62
2022/02/24 13:52:28;;;;;;;5.65;1.52;;;;;;;;;;5054083;28;20032;-62
2022/02/24 13:55:20;;;;;;;8.63;1.98;;;;;;;;;;5057787;28;20072;-61
2022/02/24 13:57:58;;;;;;;9.00;1.52;;;;;;;;;;5054114;28;20040;-61
2022/02/24 14:00:29;;;;;;;7.35;1.63;;;;;;;;;;5057595;28;20040;-62
2022/02/24 14:02:55;;;;;;;4.00;1.10;;;;;;;;;;5055415;28;20111;-62
2022/02/24 14:05:23;;;;;;;7.20;1.42;;;;;;;;;;5053817;28;20222;-63
2022/02/24 14:07:50;;;;;;;5.25;1.63;;;;;;;;;;5052925;28;20047;-62
2022/02/24 14:10:16;;;;;;;5.93;1.45;;;;;;;;;;5055616;28;20089;-63
2022/02/24 14:12:42;;;;;;;10.35;1.75;;;;;;;;;;5050072;28;20028;-62
2022/02/24 14:15:08;;;;;;;5.57;1.85;;;;;;;;;;5057606;28;20033;-59
2022/02/24 14:17:34;;;;;;;8.40;1.50;;;;;;;;;;5052448;28;20040;-61
2022/02/24 14:20:00;;;;;;;11.52;2.22;;;;;;;;;;5057505;28;20028;-61
2022/02/24 14:22:26;;;;;;;9.38;1.38;;;;;;;;;;5054946;28;20025;-61
2022/02/24 14:24:52;;;;;;;10.23;1.63;;;;;;;;;;5053249;28;20356;-62
2022/02/24 14:27:17;;;;;;;7.68;1.60;;;;;;;;;;5053075;28;20449;-60
2022/02/24 14:29:43;;;;;;;6.20;1.77;;;;;;;;;;5057327;28;20040;-61
2022/02/24 14:32:08;;;;;;;6.68;1.65;;;;;;;;;;5058214;28;20155;-61
2022/02/24 14:34:38;;;;;;;17.42;1.75;;;;;;;;;;5061939;28;20072;-61
2022/02/24 14:37:04;;;;;;;12.02;2.20;;;;;;;;;;5059707;28;20073;-61
2022/02/24 14:39:30;;;;;;;7.97;1.58;;;;;;;;;;5064129;28;20071;-64
2022/02/24 14:41:57;;;;;;;8.40;1.90;;;;;;;;;;5061026;28;20400;-60
2022/02/24 14:44:24;;;;;;;10.15;1.58;;;;;;;;;;5060216;28;20044;-60
2022/02/24 14:46:50;;;;;;;9.73;1.80;;;;;;;;;;5056282;28;20293;-61